Time;durP1;ratioP1;P1;durP2;ratioP2;P2;SDS_P1;SDS_P2;PMS_P1;PMS_P2;Temp;Humidity;BMP_temperature;BMP_pressure;BME280_temperature;BME280_humidity;BME280_pressure;Samples;Min_cycle;Max_cycle;Signal;HPM_P1;HPM_P2
2021/11/11 00:03:49;;;;;;;36.70;15.80;;;7.10;40.90;;;;;;10376963;28;20240;-73
2021/11/11 00:08:52;;;;;;;14.60;12.67;;;7.10;40.60;;;;;;10378712;28;20309;-73
2021/11/11 00:13:55;;;;;;;28.33;14.43;;;7.00;40.60;;;;;;10386782;28;20594;-73
2021/11/11 00:19:00;;;;;;;27.20;13.80;;;7.00;40.80;;;;;;10380959;28;20230;-73
2021/11/11 00:24:04;;;;;;;27.00;13.00;;;6.90;40.80;;;;;;10385590;28;20216;-74
2021/11/11 00:29:07;;;;;;;14.17;12.63;;;6.90;40.80;;;;;;10382532;28;20222;-75
2021/11/11 00:34:11;;;;;;;15.13;12.37;;;6.80;40.80;;;;;;10378153;28;20225;-75
2021/11/11 00:39:14;;;;;;;13.03;11.60;;;6.80;41.10;;;;;;10380159;28;20233;-75
2021/11/11 00:44:18;;;;;;;13.77;12.30;;;6.80;41.00;;;;;;10380190;28;20307;-75
2021/11/11 00:49:23;;;;;;;16.90;13.77;;;6.80;41.10;;;;;;10380668;28;20249;-76
2021/11/11 00:54:26;;;;;;;34.40;15.80;;;6.80;41.20;;;;;;10381666;28;20226;-76
2021/11/11 00:59:29;;;;;;;34.37;15.47;;;6.90;41.10;;;;;;10381299;28;20225;-75
2021/11/11 01:04:34;;;;;;;37.87;14.00;;;6.80;40.70;;;;;;10371641;28;20233;-75
2021/11/11 01:09:39;;;;;;;38.43;16.07;;;6.70;41.00;;;;;;10382001;28;20867;-75
2021/11/11 01:14:43;;;;;;;35.50;13.57;;;6.60;41.00;;;;;;10380651;28;20226;-76
2021/11/11 01:19:47;;;;;;;27.50;14.07;;;6.60;41.10;;;;;;10386527;28;20744;-76
2021/11/11 01:24:51;;;;;;;13.87;12.40;;;6.50;41.30;;;;;;10379590;28;20622;-75
2021/11/11 01:29:55;;;;;;;29.10;13.10;;;6.50;41.10;;;;;;10384550;28;20245;-76
2021/11/11 01:34:59;;;;;;;39.07;13.20;;;6.50;41.30;;;;;;10380711;28;20236;-76
2021/11/11 01:40:03;;;;;;;13.23;11.93;;;6.40;41.30;;;;;;10378482;28;20635;-75
2021/11/11 01:45:07;;;;;;;12.13;10.97;;;6.30;41.30;;;;;;10381556;28;20603;-76
2021/11/11 01:50:13;;;;;;;14.97;11.77;;;6.30;41.60;;;;;;10391274;28;20321;-76
2021/11/11 01:55:17;;;;;;;15.27;11.37;;;6.40;42.00;;;;;;10382313;28;20225;-75
2021/11/11 02:00:23;;;;;;;45.10;11.80;;;6.40;41.80;;;;;;10381830;28;20325;-76
2021/11/11 02:05:30;;;;;;;30.70;10.87;;;6.40;41.80;;;;;;10382292;28;20237;-76
2021/11/11 02:10:34;;;;;;;29.23;9.97;;;6.40;41.50;;;;;;10378931;28;20228;-75
2021/11/11 02:15:39;;;;;;;11.20;10.10;;;6.30;41.30;;;;;;10378677;28;20898;-75
2021/11/11 02:20:45;;;;;;;11.97;10.30;;;6.20;41.50;;;;;;10385575;28;20222;-75
2021/11/11 02:25:49;;;;;;;19.77;9.30;;;6.10;42.10;;;;;;10388283;28;20228;-75
2021/11/11 02:30:55;;;;;;;9.97;8.67;;;6.10;41.90;;;;;;10391082;28;20725;-75
2021/11/11 02:36:00;;;;;;;39.80;9.43;;;6.10;41.90;;;;;;10390401;28;20232;-75
2021/11/11 02:41:04;;;;;;;8.83;8.13;;;6.10;41.90;;;;;;10388790;28;20300;-75
2021/11/11 02:46:07;;;;;;;7.00;6.40;;;6.10;41.80;;;;;;10386932;28;20320;-75
2021/11/11 02:51:12;;;;;;;16.90;8.50;;;5.90;41.80;;;;;;10388140;28;20222;-75
2021/11/11 02:56:15;;;;;;;12.03;8.27;;;6.10;42.30;;;;;;10385827;28;20257;-75
2021/11/11 03:01:18;;;;;;;7.87;7.17;;;6.10;42.20;;;;;;10391348;28;20238;-75
2021/11/11 03:06:23;;;;;;;19.97;10.30;;;6.20;42.10;;;;;;10390798;28;20317;-75
2021/11/11 03:11:28;;;;;;;23.00;9.87;;;6.20;42.00;;;;;;10386567;28;20229;-75
2021/11/11 03:16:31;;;;;;;16.10;8.93;;;6.20;41.60;;;;;;10382598;28;20242;-75
2021/11/11 03:21:36;;;;;;;9.27;8.40;;;6.10;41.60;;;;;;10382523;28;20236;-75
2021/11/11 03:26:40;;;;;;;8.87;8.10;;;6.10;41.90;;;;;;10385048;28;20236;-75
2021/11/11 03:31:43;;;;;;;13.43;8.90;;;6.10;41.90;;;;;;10380186;28;20234;-75
2021/11/11 03:36:48;;;;;;;9.50;8.70;;;6.10;41.90;;;;;;10383534;28;20226;-75
2021/11/11 03:41:52;;;;;;;8.97;8.17;;;6.10;42.10;;;;;;10382378;28;20222;-74
2021/11/11 03:46:59;;;;;;;8.83;8.07;;;6.10;41.90;;;;;;10385626;28;20344;-76
2021/11/11 03:52:04;;;;;;;10.40;8.77;;;6.20;42.00;;;;;;10383574;28;20229;-74
2021/11/11 03:57:07;;;;;;;20.87;7.13;;;6.20;42.00;;;;;;10384942;28;20234;-74
2021/11/11 04:02:13;;;;;;;7.50;6.90;;;6.20;41.80;;;;;;10383612;28;20234;-75
2021/11/11 04:07:18;;;;;;;13.77;7.27;;;6.20;41.80;;;;;;10377490;28;20230;-75
2021/11/11 04:12:21;;;;;;;8.20;7.47;;;6.20;42.00;;;;;;10382087;28;20255;-75
2021/11/11 04:17:25;;;;;;;9.07;8.33;;;6.20;41.80;;;;;;10379302;28;20227;-75
2021/11/11 04:22:29;;;;;;;36.37;8.43;;;6.20;42.00;;;;;;10389788;28;20229;-75
2021/11/11 04:27:35;;;;;;;28.27;7.50;;;6.20;42.00;;;;;;10383725;28;20230;-75
2021/11/11 04:32:39;;;;;;;29.67;8.10;;;6.20;41.90;;;;;;10379149;28;20618;-75
2021/11/11 04:37:55;;;;;;;24.13;8.77;;;6.10;41.60;;;;;;10388669;28;20605;-75
2021/11/11 05:04:22;;;;;;;23.40;8.60;;;5.70;41.80;;;;;;10388409;28;20419;-75
2021/11/11 05:09:26;;;;;;;12.27;7.47;;;5.60;42.00;;;;;;10389287;28;20235;-76
2021/11/11 05:14:29;;;;;;;23.07;7.40;;;5.60;42.20;;;;;;10379400;28;20234;-75
2021/11/11 05:19:33;;;;;;;27.00;7.97;;;5.60;42.10;;;;;;10380550;28;20233;-75
2021/11/11 05:24:37;;;;;;;8.13;7.43;;;5.50;42.10;;;;;;10381256;28;20254;-75
2021/11/11 05:29:41;;;;;;;8.47;7.77;;;5.50;42.50;;;;;;10383040;28;20226;-75
2021/11/11 05:34:44;;;;;;;15.30;8.13;;;5.50;42.50;;;;;;10380055;28;20234;-75
2021/11/11 05:39:49;;;;;;;22.23;7.57;;;5.50;42.30;;;;;;10380332;28;20321;-75
2021/11/11 05:44:52;;;;;;;8.43;6.73;;;5.50;42.30;;;;;;10378493;28;20245;-75
2021/11/11 05:49:55;;;;;;;7.73;7.03;;;5.50;42.20;;;;;;10389401;28;20320;-76
2021/11/11 05:55:00;;;;;;;7.30;6.67;;;5.40;42.20;;;;;;10374034;28;20233;-76
2021/11/11 06:00:07;;;;;;;9.13;8.20;;;5.40;42.60;;;;;;10384829;28;20260;-75
2021/11/11 06:05:11;;;;;;;13.97;9.43;;;5.40;42.60;;;;;;10381351;28;20683;-75
2021/11/11 06:10:16;;;;;;;8.37;7.60;;;5.40;42.40;;;;;;10384955;28;20233;-74
2021/11/11 06:15:20;;;;;;;6.67;5.87;;;5.50;42.80;;;;;;10381125;28;20228;-75
2021/11/11 06:20:30;;;;;;;7.90;6.70;;;5.50;43.30;;;;;;10384204;28;20229;-74
2021/11/11 06:25:35;;;;;;;7.67;6.97;;;5.60;43.80;;;;;;10393766;28;20308;-74
2021/11/11 06:30:38;;;;;;;7.40;6.80;;;5.80;43.40;;;;;;10392274;28;20233;-74
2021/11/11 06:35:42;;;;;;;7.40;6.80;;;5.80;42.80;;;;;;10391090;28;20245;-75
2021/11/11 06:40:46;;;;;;;12.73;6.83;;;5.90;42.60;;;;;;10386024;28;20707;-74
2021/11/11 06:45:49;;;;;;;7.87;7.17;;;5.90;42.50;;;;;;10387014;28;20584;-74
2021/11/11 06:50:53;;;;;;;36.30;8.07;;;5.90;42.30;;;;;;10385205;28;20217;-73
2021/11/11 06:55:57;;;;;;;43.13;7.63;;;5.90;42.30;;;;;;10383817;28;20225;-74
2021/11/11 07:01:02;;;;;;;8.00;7.30;;;5.90;42.50;;;;;;10385223;28;20232;-74
2021/11/11 07:06:05;;;;;;;9.50;7.53;;;5.80;42.60;;;;;;10382177;28;20603;-74
2021/11/11 07:11:10;;;;;;;10.67;7.10;;;5.90;42.60;;;;;;10380602;28;20592;-73
2021/11/11 07:16:13;;;;;;;7.57;6.97;;;5.90;42.70;;;;;;10384503;28;20694;-74
2021/11/11 07:21:17;;;;;;;16.90;7.07;;;5.90;42.30;;;;;;10384076;28;20306;-74
2021/11/11 07:26:21;;;;;;;7.97;7.27;;;5.90;42.40;;;;;;10381144;28;20266;-73
2021/11/11 07:31:25;;;;;;;7.77;7.07;;;5.90;42.60;;;;;;10384591;28;20230;-73
2021/11/11 07:36:30;;;;;;;14.23;7.07;;;5.90;42.40;;;;;;10385716;28;20237;-73
2021/11/11 07:41:36;;;;;;;7.43;6.83;;;5.90;42.40;;;;;;10386457;28;20237;-73
2021/11/11 07:46:41;;;;;;;8.63;7.83;;;5.90;42.60;;;;;;10394903;28;20603;-73
2021/11/11 07:51:45;;;;;;;11.83;8.43;;;5.90;42.60;;;;;;10388308;28;20240;-73
2021/11/11 07:56:49;;;;;;;7.67;6.63;;;5.90;42.70;;;;;;10389226;28;20560;-73
2021/11/11 08:01:53;;;;;;;20.27;8.53;;;5.90;42.90;;;;;;10385277;28;20855;-74
2021/11/11 08:06:56;;;;;;;22.63;12.10;;;5.90;42.80;;;;;;10380344;28;20233;-73
2021/11/11 08:12:01;;;;;;;49.23;13.13;;;5.90;42.90;;;;;;10381844;28;20230;-73
2021/11/11 08:17:04;;;;;;;49.90;10.97;;;5.90;42.90;;;;;;10377931;28;20689;-73
2021/11/11 08:22:08;;;;;;;37.47;8.77;;;5.90;42.70;;;;;;10379812;28;20225;-74
2021/11/11 08:27:14;;;;;;;28.57;7.97;;;5.80;42.80;;;;;;10374190;28;20748;-73
2021/11/11 08:32:18;;;;;;;54.83;39.03;;;5.70;43.30;;;;;;10383090;28;20234;-72
2021/11/11 08:37:21;;;;;;;47.77;11.63;;;5.70;43.30;;;;;;10386328;28;20241;-73
2021/11/11 08:42:26;;;;;;;12.47;11.27;;;5.70;43.30;;;;;;10387989;28;20701;-72
2021/11/11 08:47:29;;;;;;;22.87;11.53;;;5.60;43.80;;;;;;10393786;28;20238;-73
2021/11/11 08:52:33;;;;;;;15.33;10.57;;;5.70;43.80;;;;;;10389356;28;20222;-72
2021/11/11 08:57:38;;;;;;;30.97;14.37;;;5.70;44.00;;;;;;10381108;28;20733;-72
2021/11/11 09:02:43;;;;;;;14.80;9.73;;;5.80;44.40;;;;;;10378100;28;20235;-72
2021/11/11 09:07:47;;;;;;;39.20;13.13;;;5.90;44.30;;;;;;10380824;28;20300;-72
2021/11/11 09:12:54;;;;;;;62.37;17.43;;;6.00;44.20;;;;;;10379030;28;20245;-72
2021/11/11 09:17:59;;;;;;;23.70;11.90;;;6.00;44.70;;;;;;10381316;28;20649;-72
2021/11/11 09:23:03;;;;;;;38.53;10.70;;;6.00;44.40;;;;;;10375190;28;20804;-72
2021/11/11 09:28:08;;;;;;;30.30;9.73;;;6.10;44.60;;;;;;10380628;28;20237;-72
2021/11/11 09:33:11;;;;;;;36.57;9.33;;;6.10;45.00;;;;;;10382139;28;20244;-72
2021/11/11 09:38:14;;;;;;;10.87;8.87;;;6.20;44.70;;;;;;10394868;28;20591;-72
2021/11/11 09:43:19;;;;;;;12.40;8.53;;;6.30;44.80;;;;;;10388096;28;20713;-73
2021/11/11 09:48:23;;;;;;;19.87;9.47;;;6.40;45.10;;;;;;10394372;28;20627;-72
2021/11/11 09:53:28;;;;;;;10.53;9.53;;;6.50;44.80;;;;;;10396991;28;20234;-72
2021/11/11 09:58:41;;;;;;;10.77;9.73;;;6.60;44.60;;;;;;10394888;28;20344;-72
2021/11/11 10:03:48;;;;;;;13.53;9.60;;;6.60;45.20;;;;;;10394102;28;20233;-72
2021/11/11 10:08:52;;;;;;;10.73;9.70;;;6.70;45.00;;;;;;10394635;28;20320;-72
2021/11/11 10:13:59;;;;;;;34.57;10.87;;;6.80;45.00;;;;;;10395906;28;20231;-73
2021/11/11 10:19:04;;;;;;;17.67;11.40;;;6.90;45.30;;;;;;10385783;28;20222;-73
2021/11/11 10:24:28;;;;;;;13.03;9.20;;;7.00;45.10;;;;;;10390626;28;20221;-72
2021/11/11 10:29:39;;;;;;;10.63;9.37;;;7.00;45.80;;;;;;10393626;28;20724;-72
2021/11/11 10:34:48;;;;;;;11.43;9.70;;;7.00;45.20;;;;;;10384511;28;20233;-73
2021/11/11 10:39:55;;;;;;;9.80;9.00;;;7.10;45.60;;;;;;10376913;28;20226;-72
2021/11/11 10:45:02;;;;;;;18.70;12.10;;;7.20;45.50;;;;;;10381333;28;20222;-73
2021/11/11 10:50:10;;;;;;;11.43;10.43;;;7.30;45.50;;;;;;10381396;28;20603;-72
2021/11/11 10:55:22;;;;;;;11.17;10.17;;;7.30;45.50;;;;;;10372373;28;20228;-72
2021/11/11 11:00:38;;;;;;;11.50;10.50;;;7.40;46.40;;;;;;10377309;28;20237;-72
2021/11/11 11:05:48;;;;;;;12.60;11.50;;;7.40;46.00;;;;;;10376640;28;21027;-72
2021/11/11 11:10:55;;;;;;;12.47;11.27;;;7.50;45.80;;;;;;10371675;28;20221;-72
2021/11/11 11:16:02;;;;;;;17.77;11.93;;;7.60;45.30;;;;;;10378131;28;20231;-72
2021/11/11 11:21:08;;;;;;;27.57;12.90;;;7.60;45.40;;;;;;10371339;28;20218;-72
2021/11/11 11:26:14;;;;;;;11.77;10.67;;;7.70;45.40;;;;;;10376227;28;20232;-72
2021/11/11 11:31:40;;;;;;;12.80;11.60;;;7.60;44.90;;;;;;10378408;28;21010;-72
2021/11/11 11:36:47;;;;;;;13.17;11.97;;;7.70;46.20;;;;;;10387599;28;20245;-74
2021/11/11 11:41:51;;;;;;;14.10;12.90;;;7.70;45.40;;;;;;10393161;28;20221;-73
2021/11/11 11:47:03;;;;;;;13.10;11.90;;;7.70;45.00;;;;;;10385784;28;20252;-73
2021/11/11 11:52:07;;;;;;;17.03;12.73;;;7.80;45.50;;;;;;10385081;28;20225;-73
2021/11/11 11:57:24;;;;;;;14.53;13.20;;;7.80;45.20;;;;;;10374826;28;20591;-73
2021/11/11 12:02:55;;;;;;;12.73;11.60;;;7.90;45.80;;;;;;10379919;28;20256;-73
2021/11/11 12:08:11;;;;;;;14.90;13.40;;;7.90;45.30;;;;;;10383572;28;20230;-73
2021/11/11 12:34:13;;;;;;;14.90;13.60;;;8.20;45.30;;;;;;10381280;28;20288;-78
2021/11/11 12:41:05;;;;;;;16.43;14.17;;;8.30;45.30;;;;;;10376739;28;20225;-78
2021/11/11 12:46:38;;;;;;;14.83;13.53;;;8.40;45.50;;;;;;10369295;28;20222;-77
2021/11/11 12:51:43;;;;;;;22.50;14.33;;;8.40;45.50;;;;;;10360033;28;20238;-78
2021/11/11 12:57:03;;;;;;;20.17;13.70;;;8.40;45.00;;;;;;10365773;28;20248;-78
2021/11/11 13:02:07;;;;;;;15.10;13.73;;;8.50;45.60;;;;;;10369058;28;20232;-77
2021/11/11 13:07:26;;;;;;;20.13;17.90;;;8.50;44.80;;;;;;10365298;28;22918;-77
2021/11/11 13:12:29;;;;;;;23.00;16.80;;;8.60;45.70;;;;;;10370564;28;20230;-77
2021/11/11 13:17:41;;;;;;;17.90;14.40;;;8.60;44.70;;;;;;10369848;28;20658;-77
2021/11/11 13:22:49;;;;;;;17.40;15.80;;;8.50;45.10;;;;;;10369914;28;20218;-76
2021/11/11 13:28:20;;;;;;;17.73;15.93;;;8.50;45.10;;;;;;10372735;28;20248;-77
2021/11/11 14:00:46;;;;;;;18.83;17.10;;;8.60;45.30;;;;;;10380241;28;20233;-76
2021/11/11 16:20:41;;;;;;;27.23;24.40;;;9.30;45.90;;;;;;10383040;28;20232;-77
2021/11/11 16:31:04;;;;;;;26.27;23.57;;;9.30;45.60;;;;;;10376762;28;20310;-75
2021/11/11 16:36:09;;;;;;;25.40;22.93;;;9.40;45.70;;;;;;10382126;28;20229;-75
2021/11/11 16:41:13;;;;;;;24.90;22.50;;;9.40;45.90;;;;;;10384189;28;20309;-75
2021/11/11 16:46:16;;;;;;;24.47;22.03;;;9.40;45.60;;;;;;10378723;28;20226;-76
2021/11/11 16:51:20;;;;;;;27.57;24.77;;;9.40;46.10;;;;;;10378060;28;20221;-77
2021/11/11 16:56:25;;;;;;;26.80;24.13;;;9.40;46.30;;;;;;10380883;28;20230;-77
2021/11/11 17:01:28;;;;;;;24.50;21.97;;;9.40;45.90;;;;;;10381236;28;20226;-76
2021/11/11 17:06:33;;;;;;;27.57;24.60;;;9.50;45.90;;;;;;10378674;28;20225;-76
2021/11/11 17:11:37;;;;;;;27.07;24.03;;;9.40;45.80;;;;;;10382796;28;20222;-76
2021/11/11 17:16:41;;;;;;;28.20;25.37;;;9.40;45.60;;;;;;10380896;28;20226;-76
2021/11/11 17:21:57;;;;;;;30.10;26.80;;;9.40;45.70;;;;;;10379262;28;20226;-77
2021/11/11 17:27:21;;;;;;;29.00;25.90;;;9.40;45.90;;;;;;10384330;28;20249;-76
2021/11/11 17:32:24;;;;;;;26.07;23.23;;;9.40;46.00;;;;;;10377604;28;20221;-76
2021/11/11 17:37:29;;;;;;;28.80;25.73;;;9.40;46.00;;;;;;10382905;28;20237;-76
2021/11/11 17:42:32;;;;;;;29.73;25.33;;;9.40;46.30;;;;;;10384063;28;20259;-76
2021/11/11 17:47:36;;;;;;;28.33;25.20;;;9.50;46.00;;;;;;10381308;28;20240;-76
2021/11/11 17:52:48;;;;;;;30.73;26.63;;;9.50;46.00;;;;;;10378968;28;20229;-76
2021/11/11 17:57:51;;;;;;;28.93;25.73;;;9.50;46.10;;;;;;10389085;28;20316;-76
2021/11/11 18:02:55;;;;;;;29.43;25.37;;;9.60;45.80;;;;;;10384834;28;20230;-76
2021/11/11 18:08:04;;;;;;;35.37;26.57;;;9.60;45.80;;;;;;10386442;28;20236;-76
2021/11/11 18:13:13;;;;;;;29.47;26.23;;;9.60;45.90;;;;;;10390002;28;20267;-75
2021/11/11 18:18:16;;;;;;;27.17;24.23;;;9.60;45.90;;;;;;10395440;28;20225;-76
2021/11/11 18:23:20;;;;;;;27.57;24.80;;;9.60;45.80;;;;;;10389514;28;20230;-76
2021/11/11 18:28:27;;;;;;;28.27;24.83;;;9.60;46.00;;;;;;10390960;28;20234;-71
2021/11/11 18:33:38;;;;;;;25.60;22.93;;;9.70;45.90;;;;;;10387935;28;20307;-71
2021/11/11 18:38:43;;;;;;;25.53;22.77;;;9.70;45.80;;;;;;10383524;28;20232;-71
2021/11/11 18:43:46;;;;;;;32.77;24.90;;;9.80;45.90;;;;;;10386125;28;20589;-70
2021/11/11 18:48:50;;;;;;;33.87;27.17;;;9.80;45.60;;;;;;10393456;28;20230;-71
2021/11/11 18:53:55;;;;;;;32.73;28.43;;;9.80;45.40;;;;;;10390510;28;20230;-71
2021/11/11 18:58:58;;;;;;;39.43;26.43;;;9.80;45.50;;;;;;10385914;28;20691;-70
2021/11/11 19:04:04;;;;;;;25.80;23.07;;;9.80;45.30;;;;;;10379283;28;20265;-70
2021/11/11 19:09:15;;;;;;;28.20;23.63;;;9.70;45.30;;;;;;10385735;28;20713;-70
2021/11/11 19:14:23;;;;;;;25.90;23.17;;;9.70;45.60;;;;;;10385150;28;20570;-71
2021/11/11 19:19:30;;;;;;;27.93;24.83;;;9.70;45.50;;;;;;10358260;28;20233;-70
2021/11/11 19:24:35;;;;;;;44.10;24.80;;;9.70;45.40;;;;;;10358512;28;20244;-70
2021/11/11 19:29:39;;;;;;;25.80;23.03;;;9.70;45.50;;;;;;10362939;28;20250;-71
2021/11/11 19:34:46;;;;;;;24.53;22.03;;;9.70;45.20;;;;;;10366661;28;20230;-70
2021/11/11 19:40:06;;;;;;;40.67;25.90;;;9.70;45.20;;;;;;10360058;28;20240;-70
2021/11/11 20:06:58;;;;;;;21.80;19.60;;;9.50;45.50;;;;;;10336476;28;20245;-70
2021/11/11 20:12:14;;;;;;;29.03;22.27;;;9.50;46.20;;;;;;10390996;28;20253;-71
2021/11/11 20:33:29;;;;;;;21.40;19.17;;;9.40;45.40;;;;;;10389357;28;20221;-70
2021/11/11 20:44:15;;;;;;;27.77;22.50;;;9.40;45.40;;;;;;10396980;28;20230;-70
2021/11/11 20:49:34;;;;;;;34.47;25.97;;;9.30;45.30;;;;;;10393441;28;20225;-70
2021/11/11 21:00:11;;;;;;;25.03;20.87;;;9.30;45.40;;;;;;10394402;28;20225;-70
2021/11/11 21:05:18;;;;;;;27.77;22.77;;;9.30;45.40;;;;;;10399846;28;20218;-70
2021/11/11 21:21:23;;;;;;;24.97;21.13;;;9.20;45.40;;;;;;10361520;28;20238;-70
2021/11/11 21:26:27;;;;;;;21.10;18.93;;;9.20;45.50;;;;;;10383713;28;20237;-70
2021/11/11 21:31:31;;;;;;;30.80;22.63;;;9.20;45.30;;;;;;10381365;28;20226;-70
2021/11/11 21:36:47;;;;;;;21.80;19.60;;;9.20;45.20;;;;;;10379549;28;20230;-70
2021/11/11 21:41:54;;;;;;;19.97;17.97;;;9.10;45.40;;;;;;10381295;28;20245;-70
2021/11/11 21:46:58;;;;;;;20.53;18.47;;;9.20;45.30;;;;;;10382618;28;20734;-70
2021/11/11 21:52:04;;;;;;;22.73;20.47;;;9.20;45.40;;;;;;10379569;28;20233;-70
2021/11/11 21:57:12;;;;;;;22.17;19.93;;;9.20;45.50;;;;;;10376598;28;20224;-71
2021/11/11 22:02:38;;;;;;;22.07;19.87;;;9.20;45.40;;;;;;10382746;28;20222;-70
2021/11/11 22:08:06;;;;;;;35.83;19.67;;;9.10;45.20;;;;;;10342195;28;20285;-70
2021/11/11 22:24:02;;;;;;;24.90;19.90;;;9.00;45.20;;;;;;10365438;28;20712;-70
2021/11/11 22:29:23;;;;;;;24.17;20.97;;;9.00;45.50;;;;;;10378539;28;20704;-71
2021/11/11 22:34:31;;;;;;;28.73;20.13;;;9.00;45.40;;;;;;10380117;28;20268;-70
2021/11/11 22:39:37;;;;;;;27.70;19.60;;;9.00;45.30;;;;;;10379297;28;20240;-70
2021/11/11 22:44:41;;;;;;;34.87;20.07;;;9.00;45.20;;;;;;10379562;28;20785;-70
2021/11/11 22:49:44;;;;;;;35.77;19.33;;;8.90;44.80;;;;;;10338856;28;20741;-70
2021/11/11 22:54:51;;;;;;;26.13;18.80;;;8.80;44.80;;;;;;10368595;28;20242;-70
2021/11/11 23:00:04;;;;;;;22.40;18.53;;;8.60;45.00;;;;;;10384797;28;20243;-70
2021/11/11 23:05:25;;;;;;;20.17;18.27;;;8.50;45.10;;;;;;10364219;28;20234;-70
2021/11/11 23:16:19;;;;;;;18.20;16.40;;;8.40;45.50;;;;;;10339985;28;20601;-70
2021/11/11 23:32:12;;;;;;;18.57;16.67;;;8.30;45.40;;;;;;10381306;28;20222;-70
2021/11/11 23:37:16;;;;;;;18.50;16.00;;;8.30;45.40;;;;;;10375736;28;20237;-70
2021/11/11 23:42:20;;;;;;;21.23;16.23;;;8.30;45.40;;;;;;10376231;28;20703;-70
2021/11/11 23:47:30;;;;;;;21.00;16.63;;;8.40;45.50;;;;;;10377857;28;20225;-70
2021/11/11 23:52:43;;;;;;;22.60;14.60;;;8.30;45.00;;;;;;10362525;28;20225;-70
